createdAt,value
2023-06-25T00:00:03.727Z,30.47
2023-06-25T00:01:03.850Z,30.46
2023-06-25T00:02:03.884Z,30.48
2023-06-25T00:03:04.112Z,30.44
2023-06-25T00:04:04.121Z,30.45
2023-06-25T00:05:04.103Z,30.41
2023-06-25T00:06:04.167Z,30.41
2023-06-25T00:07:04.248Z,30.42
2023-06-25T00:08:04.303Z,30.44
2023-06-25T00:09:04.357Z,30.40
2023-06-25T00:10:04.416Z,30.41
2023-06-25T00:11:04.476Z,30.40
2023-06-25T00:12:04.536Z,30.38
2023-06-25T00:13:04.620Z,30.38
2023-06-25T00:14:04.700Z,30.38
2023-06-25T00:15:04.731Z,30.41
2023-06-25T00:16:04.770Z,30.42
2023-06-25T00:17:04.824Z,30.43
2023-06-25T00:18:04.965Z,30.36
2023-06-25T00:19:04.887Z,30.37
2023-06-25T00:20:04.894Z,30.36
2023-06-25T00:21:04.920Z,30.36
2023-06-25T00:22:04.935Z,30.37
2023-06-25T00:23:07.863Z,30.39
2023-06-25T00:24:04.947Z,30.36
2023-06-25T00:25:04.968Z,30.37
2023-06-25T00:26:04.979Z,30.36
2023-06-25T00:27:05.002Z,30.33
2023-06-25T00:28:05.031Z,30.37
2023-06-25T00:29:05.042Z,30.36
2023-06-25T00:30:05.059Z,30.36
2023-06-25T00:31:05.117Z,30.33
2023-06-25T00:32:05.105Z,30.29
2023-06-25T00:33:05.162Z,30.30
2023-06-25T00:34:05.131Z,30.33
2023-06-25T00:35:05.140Z,30.33
2023-06-25T00:36:05.168Z,30.31
2023-06-25T00:37:05.201Z,30.32
2023-06-25T00:38:05.216Z,30.29
2023-06-25T00:39:05.241Z,30.30
2023-06-25T00:40:05.260Z,30.27
2023-06-25T00:41:05.284Z,30.29
2023-06-25T00:42:05.335Z,30.33
2023-06-25T00:43:05.358Z,30.30
2023-06-25T00:44:05.425Z,30.24
2023-06-25T00:45:05.399Z,30.24
2023-06-25T00:46:05.424Z,30.26
2023-06-25T00:47:05.446Z,30.28
2023-06-25T00:48:05.492Z,30.26
2023-06-25T00:49:05.468Z,30.29
2023-06-25T00:50:05.491Z,30.26
2023-06-25T00:51:05.512Z,30.24
2023-06-25T00:52:05.508Z,30.21
2023-06-25T00:53:05.538Z,30.21
2023-06-25T00:54:05.541Z,30.26
2023-06-25T00:55:05.590Z,30.18
2023-06-25T00:56:05.582Z,30.24
2023-06-25T00:57:05.587Z,30.25
2023-06-25T00:58:05.615Z,30.22
2023-06-25T00:59:05.625Z,30.25
2023-06-25T01:00:05.635Z,30.25
2023-06-25T01:01:05.675Z,30.21
2023-06-25T01:02:05.670Z,30.21
2023-06-25T01:03:05.800Z,30.22
2023-06-25T01:04:05.714Z,30.21
2023-06-25T01:05:05.726Z,30.21
2023-06-25T01:06:13.060Z,30.16
2023-06-25T01:07:06.797Z,30.15
2023-06-25T01:08:05.771Z,30.16
2023-06-25T01:09:05.791Z,30.15
2023-06-25T01:10:05.807Z,30.18
2023-06-25T01:11:05.844Z,30.19
2023-06-25T01:12:05.849Z,30.18
2023-06-25T01:13:05.883Z,30.18
2023-06-25T01:14:05.892Z,30.16
2023-06-25T01:15:05.891Z,30.18
2023-06-25T01:16:05.935Z,30.16
2023-06-25T01:17:05.939Z,30.13
2023-06-25T01:18:05.980Z,30.12
2023-06-25T01:19:06.102Z,30.10
2023-06-25T01:20:06.000Z,30.12
2023-06-25T01:21:06.052Z,30.17
2023-06-25T01:22:06.000Z,30.13
2023-06-25T01:23:06.016Z,30.12
2023-06-25T01:24:06.038Z,30.12
2023-06-25T01:25:06.049Z,30.10
2023-06-25T01:26:06.083Z,30.07
2023-06-25T01:27:06.092Z,30.13
2023-06-25T01:28:06.102Z,30.12
2023-06-25T01:29:06.153Z,30.13
2023-06-25T01:30:06.156Z,30.14
2023-06-25T01:31:06.162Z,30.18
2023-06-25T01:32:06.241Z,30.11
2023-06-25T01:33:06.281Z,30.10
2023-06-25T01:34:06.230Z,30.14
2023-06-25T01:35:06.248Z,30.10
2023-06-25T01:36:06.258Z,30.13
2023-06-25T01:37:06.271Z,30.06
2023-06-25T01:38:06.303Z,30.07
2023-06-25T01:39:06.313Z,30.07
2023-06-25T01:40:06.330Z,30.08
2023-06-25T01:41:06.344Z,30.06
2023-06-25T01:42:06.353Z,30.06
2023-06-25T01:43:06.390Z,30.08
2023-06-25T01:44:06.390Z,30.07
2023-06-25T01:45:06.414Z,30.12
2023-06-25T01:46:06.484Z,30.11
2023-06-25T01:47:06.440Z,30.07
2023-06-25T01:48:06.480Z,30.07
2023-06-25T01:49:08.631Z,30.11
2023-06-25T01:50:07.545Z,30.08
2023-06-25T01:51:06.514Z,30.09
2023-06-25T01:52:06.538Z,30.08
2023-06-25T01:53:06.564Z,30.07
2023-06-25T01:54:06.584Z,30.05
2023-06-25T01:55:06.586Z,30.09
2023-06-25T01:56:06.629Z,30.08
2023-06-25T01:57:06.643Z,30.05
2023-06-25T01:58:06.650Z,30.09
2023-06-25T01:59:06.656Z,30.04
2023-06-25T02:00:06.686Z,30.05
2023-06-25T02:01:06.705Z,30.05
2023-06-25T02:02:06.723Z,30.05
2023-06-25T02:03:06.802Z,30.05
2023-06-25T02:04:06.762Z,29.99
2023-06-25T02:05:06.786Z,30.01
2023-06-25T02:06:06.801Z,30.01
2023-06-25T02:07:06.865Z,30.02
2023-06-25T02:08:06.834Z,30.02
2023-06-25T02:09:06.836Z,29.99
2023-06-25T02:10:06.874Z,29.98
2023-06-25T02:11:06.874Z,30.02
2023-06-25T02:12:06.903Z,30.03
2023-06-25T02:13:06.945Z,29.99
2023-06-25T02:14:06.961Z,29.92
2023-06-25T02:15:06.954Z,29.95
2023-06-25T02:16:07.011Z,29.93
2023-06-25T02:17:06.984Z,29.97
2023-06-25T02:18:07.038Z,29.96
2023-06-25T02:19:07.024Z,29.92
2023-06-25T02:20:07.042Z,29.94
2023-06-25T02:21:07.047Z,29.97
2023-06-25T02:22:07.065Z,29.91
2023-06-25T02:23:07.111Z,29.91
2023-06-25T02:24:07.101Z,29.93
2023-06-25T02:25:07.173Z,29.90
2023-06-25T02:26:07.144Z,29.88
2023-06-25T02:27:07.139Z,29.87
2023-06-25T02:28:07.177Z,29.86
2023-06-25T02:29:07.176Z,29.87
2023-06-25T02:30:07.210Z,29.87
2023-06-25T02:31:07.252Z,29.80
2023-06-25T02:32:07.250Z,29.86
2023-06-25T02:33:07.292Z,29.79
2023-06-25T02:34:07.253Z,29.77
2023-06-25T02:35:07.294Z,29.81
2023-06-25T02:36:07.291Z,29.87
2023-06-25T02:37:07.297Z,29.81
2023-06-25T02:38:07.328Z,29.84
2023-06-25T02:39:07.369Z,29.83
2023-06-25T02:40:07.413Z,29.82
2023-06-25T02:41:07.465Z,29.81
2023-06-25T02:42:07.498Z,29.76
2023-06-25T02:43:07.556Z,29.80
2023-06-25T02:44:07.571Z,29.82
2023-06-25T02:45:07.613Z,29.76
2023-06-25T02:46:07.670Z,29.74
2023-06-25T02:47:07.809Z,29.73
2023-06-25T02:48:07.754Z,29.70
2023-06-25T02:49:07.839Z,29.68
2023-06-25T02:50:07.858Z,29.70
2023-06-25T02:51:07.862Z,29.70
2023-06-25T02:52:07.873Z,29.66
2023-06-25T02:53:07.897Z,29.66
2023-06-25T02:54:07.918Z,29.68
2023-06-25T02:55:07.946Z,29.62
2023-06-25T02:56:07.953Z,29.65
2023-06-25T02:57:07.971Z,29.62
2023-06-25T02:58:07.978Z,29.59
2023-06-25T02:59:08.015Z,29.66
2023-06-25T03:00:08.045Z,29.63
2023-06-25T03:01:08.102Z,29.64
2023-06-25T03:02:08.128Z,29.60
2023-06-25T03:03:08.195Z,29.64
2023-06-25T03:04:08.120Z,29.55
2023-06-25T03:05:08.129Z,29.55
2023-06-25T03:06:08.190Z,29.58
2023-06-25T03:07:08.293Z,29.57
2023-06-25T03:08:08.342Z,29.55
2023-06-25T03:09:08.399Z,29.55
2023-06-25T03:10:08.477Z,29.55
2023-06-25T03:11:08.544Z,29.54
2023-06-25T03:12:08.603Z,29.52
2023-06-25T03:13:08.690Z,29.49
2023-06-25T03:14:10.323Z,29.46
2023-06-25T03:15:08.783Z,29.52
2023-06-25T03:16:08.839Z,29.53
2023-06-25T03:17:08.823Z,29.53
2023-06-25T03:18:08.865Z,29.51
2023-06-25T03:19:08.886Z,29.53
2023-06-25T03:20:08.909Z,29.48
2023-06-25T03:21:08.939Z,29.53
2023-06-25T03:22:08.970Z,29.47
2023-06-25T03:23:08.995Z,29.44
2023-06-25T03:24:09.009Z,29.44
2023-06-25T03:25:09.049Z,29.50
2023-06-25T03:26:09.073Z,29.51
2023-06-25T03:27:09.108Z,29.48
2023-06-25T03:28:09.136Z,29.47
2023-06-25T03:29:09.139Z,29.47
2023-06-25T03:30:09.193Z,29.43
2023-06-25T03:31:09.243Z,29.48
2023-06-25T03:32:09.245Z,29.44
2023-06-25T03:33:09.262Z,29.49
2023-06-25T03:34:09.294Z,29.49
2023-06-25T03:35:09.318Z,29.49
2023-06-25T03:36:09.337Z,29.53
2023-06-25T03:37:09.390Z,29.53
2023-06-25T03:38:09.388Z,29.50
2023-06-25T03:39:09.437Z,29.50
2023-06-25T03:40:09.443Z,29.53
2023-06-25T03:41:09.455Z,29.50
2023-06-25T03:42:09.528Z,29.50
2023-06-25T03:43:09.538Z,29.55
2023-06-25T03:44:09.541Z,29.55
2023-06-25T03:45:09.589Z,29.58
2023-06-25T03:46:09.603Z,29.58
2023-06-25T03:47:09.660Z,29.56
2023-06-25T03:48:09.799Z,29.61
2023-06-25T03:49:09.683Z,29.59
2023-06-25T03:50:09.716Z,29.60
2023-06-25T03:51:09.752Z,29.63
2023-06-25T03:52:09.767Z,29.63
2023-06-25T03:53:09.809Z,29.59
2023-06-25T03:54:09.825Z,29.63
2023-06-25T03:55:09.888Z,29.63
2023-06-25T03:56:09.916Z,29.60
2023-06-25T03:57:09.936Z,29.63
2023-06-25T03:58:10.028Z,29.61
2023-06-25T03:59:10.115Z,29.60
2023-06-25T04:00:10.214Z,29.63
2023-06-25T04:01:10.341Z,29.64
2023-06-25T04:02:10.555Z,29.61
2023-06-25T04:03:10.673Z,29.61
2023-06-25T04:04:10.697Z,29.61
2023-06-25T04:05:10.701Z,29.65
2023-06-25T04:06:10.746Z,29.68
2023-06-25T04:07:10.840Z,29.68
2023-06-25T04:08:10.904Z,29.64
2023-06-25T04:09:10.982Z,29.68
2023-06-25T04:10:11.085Z,29.68
2023-06-25T04:11:11.147Z,29.71
2023-06-25T04:12:11.226Z,29.68
2023-06-25T04:13:11.335Z,29.62
2023-06-25T04:14:11.360Z,29.64
2023-06-25T04:15:11.424Z,29.68
2023-06-25T04:16:11.504Z,29.68
2023-06-25T04:17:11.609Z,29.70
2023-06-25T04:18:11.683Z,29.68
2023-06-25T04:19:11.703Z,29.63
2023-06-25T04:20:11.782Z,29.66
2023-06-25T04:21:11.897Z,29.66
2023-06-25T04:22:11.917Z,29.71
2023-06-25T04:23:11.998Z,29.67
2023-06-25T04:24:12.092Z,29.69
2023-06-25T04:25:12.164Z,29.77
2023-06-25T04:26:12.198Z,29.75
2023-06-25T04:27:12.263Z,29.71
2023-06-25T04:28:12.363Z,29.73
2023-06-25T04:29:12.396Z,29.78
2023-06-25T04:30:12.450Z,29.77
2023-06-25T04:31:12.494Z,29.80
2023-06-25T04:32:12.637Z,29.81
2023-06-25T04:33:12.590Z,29.82
2023-06-25T04:34:12.642Z,29.84
2023-06-25T04:35:12.672Z,29.83
2023-06-25T04:36:12.734Z,29.85
2023-06-25T04:37:12.801Z,29.82
2023-06-25T04:38:12.846Z,29.86
2023-06-25T04:39:12.899Z,29.88
2023-06-25T04:40:12.961Z,29.89
2023-06-25T04:41:12.999Z,29.92
2023-06-25T04:42:13.027Z,29.91
2023-06-25T04:43:13.083Z,29.99
2023-06-25T04:44:13.119Z,29.93
2023-06-25T04:45:13.212Z,29.94
2023-06-25T04:46:13.281Z,29.96
2023-06-25T04:47:13.265Z,30.00
2023-06-25T04:48:13.306Z,30.00
2023-06-25T04:49:13.409Z,29.98
2023-06-25T04:50:13.406Z,30.02
2023-06-25T04:51:13.438Z,30.04
2023-06-25T04:52:13.486Z,30.02
2023-06-25T04:53:13.524Z,30.01
2023-06-25T04:54:13.554Z,30.01
2023-06-25T04:55:13.621Z,30.04
2023-06-25T04:56:13.640Z,30.04
2023-06-25T04:57:13.681Z,30.09
2023-06-25T04:58:13.726Z,30.08
2023-06-25T04:59:13.754Z,30.09
2023-06-25T05:00:13.796Z,30.09
2023-06-25T05:01:13.873Z,30.11
2023-06-25T05:02:13.888Z,30.11
2023-06-25T05:03:14.026Z,30.15
2023-06-25T05:04:13.966Z,30.11
2023-06-25T05:05:14.003Z,30.16
2023-06-25T05:06:14.015Z,30.12
2023-06-25T05:07:14.094Z,30.13
2023-06-25T05:08:14.109Z,30.15
2023-06-25T05:09:14.155Z,30.16
2023-06-25T05:10:14.185Z,30.20
2023-06-25T05:11:14.184Z,30.23
2023-06-25T05:12:14.259Z,30.16
2023-06-25T05:13:14.297Z,30.26
2023-06-25T05:14:14.318Z,30.23
2023-06-25T05:15:14.358Z,30.23
2023-06-25T05:16:14.409Z,30.22
2023-06-25T05:17:14.441Z,30.26
2023-06-25T05:18:14.468Z,30.24
2023-06-25T05:19:14.511Z,30.22
2023-06-25T05:20:14.507Z,30.27
2023-06-25T05:21:14.549Z,30.27
2023-06-25T05:22:14.593Z,30.30
2023-06-25T05:23:14.644Z,30.30
2023-06-25T05:24:14.713Z,30.35
2023-06-25T05:25:14.749Z,30.34
2023-06-25T05:26:14.791Z,30.30
2023-06-25T05:27:14.791Z,30.35
2023-06-25T05:28:14.894Z,30.35
2023-06-25T05:29:14.863Z,30.38
2023-06-25T05:30:14.899Z,30.38
2023-06-25T05:31:14.976Z,30.40
2023-06-25T05:32:14.970Z,30.38
2023-06-25T05:33:15.004Z,30.38
2023-06-25T05:34:15.022Z,30.39
2023-06-25T05:35:15.069Z,30.41
2023-06-25T05:36:15.118Z,30.45
2023-06-25T05:37:15.188Z,30.46
2023-06-25T05:38:15.229Z,30.56
2023-06-25T05:39:15.268Z,30.53
2023-06-25T05:40:15.315Z,30.49
2023-06-25T05:41:15.369Z,30.56
2023-06-25T05:42:15.418Z,30.59
2023-06-25T05:43:15.480Z,30.67
2023-06-25T05:44:15.522Z,30.63
2023-06-25T05:45:15.581Z,30.71
2023-06-25T05:46:15.609Z,30.71
2023-06-25T05:47:15.759Z,30.69
2023-06-25T05:48:15.740Z,30.70
2023-06-25T05:49:15.785Z,30.73
2023-06-25T05:50:15.843Z,30.73
2023-06-25T05:51:15.875Z,30.76
2023-06-25T05:52:15.930Z,30.80
2023-06-25T05:53:16.002Z,30.81
2023-06-25T05:54:16.060Z,30.81
2023-06-25T05:55:16.084Z,30.81
2023-06-25T05:56:17.348Z,30.84
2023-06-25T05:57:16.177Z,30.86
2023-06-25T05:58:16.252Z,30.82
2023-06-25T05:59:16.296Z,30.78
2023-06-25T06:00:16.343Z,30.67
2023-06-25T06:01:16.433Z,30.67
2023-06-25T06:02:16.426Z,30.65
2023-06-25T06:03:16.500Z,30.66
2023-06-25T06:04:18.663Z,30.70
2023-06-25T06:05:16.536Z,30.72
2023-06-25T06:06:16.580Z,30.68
2023-06-25T06:07:16.634Z,30.65
2023-06-25T06:08:16.844Z,30.63
2023-06-25T06:09:16.673Z,30.66
2023-06-25T06:10:16.751Z,30.71
2023-06-25T06:11:16.746Z,30.68
2023-06-25T06:12:16.775Z,30.63
2023-06-25T06:13:16.809Z,30.64
2023-06-25T06:14:16.832Z,30.64
2023-06-25T06:15:16.879Z,30.75
2023-06-25T06:16:16.926Z,30.73
2023-06-25T06:17:16.928Z,30.73
2023-06-25T06:18:16.966Z,30.67
2023-06-25T06:19:16.994Z,30.69
2023-06-25T06:20:17.035Z,30.64
2023-06-25T06:21:17.070Z,30.67
2023-06-25T06:22:17.156Z,30.74
2023-06-25T06:23:17.143Z,30.67
2023-06-25T06:24:17.172Z,30.69
2023-06-25T06:25:17.179Z,30.69
2023-06-25T06:26:17.213Z,30.78
2023-06-25T06:27:17.248Z,30.74
2023-06-25T06:28:17.283Z,30.74
2023-06-25T06:29:17.313Z,30.64
2023-06-25T06:30:17.359Z,30.63
2023-06-25T06:31:17.490Z,30.72
2023-06-25T06:32:17.360Z,30.68
2023-06-25T06:33:17.434Z,30.69
2023-06-25T06:34:17.407Z,30.72
2023-06-25T06:35:17.450Z,30.79
2023-06-25T06:36:17.468Z,30.85
2023-06-25T06:37:17.504Z,30.85
2023-06-25T06:38:17.551Z,30.91
2023-06-25T06:39:17.551Z,30.91
2023-06-25T06:40:17.585Z,30.90
2023-06-25T06:41:17.614Z,31.00
2023-06-25T06:42:17.653Z,30.91
2023-06-25T06:43:17.686Z,30.94
2023-06-25T06:44:17.687Z,31.00
2023-06-25T06:45:17.737Z,31.03
2023-06-25T06:46:17.747Z,31.04
2023-06-25T06:47:17.759Z,31.04
2023-06-25T06:48:17.822Z,31.15
2023-06-25T06:49:17.844Z,31.16
2023-06-25T06:50:17.904Z,31.24
2023-06-25T06:51:17.947Z,31.23
2023-06-25T06:52:17.994Z,31.20
2023-06-25T06:53:17.979Z,31.35
2023-06-25T06:54:17.995Z,31.26
2023-06-25T06:55:18.015Z,31.28
2023-06-25T06:56:18.029Z,31.27
2023-06-25T06:57:18.060Z,31.25
2023-06-25T06:58:18.094Z,31.27
2023-06-25T06:59:18.091Z,31.15
2023-06-25T07:00:18.105Z,31.19
2023-06-25T07:01:18.203Z,31.19
2023-06-25T07:02:18.158Z,31.08
2023-06-25T07:03:18.163Z,31.04
2023-06-25T07:04:18.180Z,31.01
2023-06-25T07:05:18.238Z,31.01
2023-06-25T07:06:18.237Z,30.94
2023-06-25T07:07:18.302Z,30.89
2023-06-25T07:08:18.277Z,30.85
2023-06-25T07:09:18.274Z,30.77
2023-06-25T07:10:18.311Z,30.76
2023-06-25T07:11:18.326Z,30.71
2023-06-25T07:12:18.369Z,30.63
2023-06-25T07:13:18.365Z,30.68
2023-06-25T07:14:18.384Z,30.62
2023-06-25T07:15:18.401Z,30.57
2023-06-25T07:16:18.434Z,30.50
2023-06-25T07:17:18.424Z,30.49
2023-06-25T07:18:18.461Z,30.43
2023-06-25T07:19:18.466Z,30.45
2023-06-25T07:20:18.508Z,30.35
2023-06-25T07:21:18.507Z,30.32
2023-06-25T07:22:18.495Z,30.32
2023-06-25T07:23:18.517Z,30.24
2023-06-25T07:24:18.615Z,30.18
2023-06-25T07:25:18.555Z,30.13
2023-06-25T07:26:18.556Z,30.11
2023-06-25T07:27:18.680Z,30.09
2023-06-25T07:28:18.732Z,30.12
2023-06-25T07:29:18.803Z,30.10
2023-06-25T07:30:18.874Z,30.03
2023-06-25T07:31:18.985Z,30.06
2023-06-25T07:32:19.028Z,30.06
2023-06-25T07:33:19.035Z,29.97
2023-06-25T07:34:19.038Z,30.03
2023-06-25T07:35:19.107Z,29.97
2023-06-25T07:36:19.065Z,29.95
2023-06-25T07:37:19.085Z,29.92
2023-06-25T07:38:19.098Z,29.90
2023-06-25T07:39:19.112Z,29.93
2023-06-25T07:40:19.117Z,29.92
2023-06-25T07:41:19.116Z,29.93
2023-06-25T07:42:19.186Z,29.93
2023-06-25T07:43:19.433Z,29.89
2023-06-25T07:44:38.155Z,29.91
2023-06-25T07:45:20.323Z,29.93
2023-06-25T07:46:19.348Z,29.91
2023-06-25T07:47:19.338Z,29.84
2023-06-25T07:48:19.358Z,29.88
2023-06-25T07:49:19.375Z,29.85
2023-06-25T07:50:19.367Z,29.87
2023-06-25T07:51:19.379Z,29.87
2023-06-25T07:52:19.408Z,29.88
2023-06-25T07:53:19.412Z,29.86
2023-06-25T07:54:19.398Z,29.89
2023-06-25T07:55:19.410Z,29.89
2023-06-25T07:56:19.423Z,29.86
2023-06-25T07:57:19.422Z,29.86
2023-06-25T07:58:19.458Z,29.85
2023-06-25T07:59:19.510Z,29.81
2023-06-25T08:00:20.688Z,29.78
2023-06-25T08:01:19.626Z,29.77
2023-06-25T08:02:19.788Z,29.74
2023-06-25T08:03:19.958Z,29.73
2023-06-25T08:04:19.940Z,29.73
2023-06-25T08:05:19.734Z,29.70
2023-06-25T08:06:19.844Z,29.72
2023-06-25T08:07:19.853Z,29.70
2023-06-25T08:08:19.801Z,29.66
2023-06-25T08:09:19.779Z,29.59
2023-06-25T08:10:19.788Z,29.64
2023-06-25T08:11:19.765Z,29.57
2023-06-25T08:12:19.777Z,29.55
2023-06-25T08:13:19.890Z,29.51
2023-06-25T08:14:20.384Z,29.48
2023-06-25T08:15:19.826Z,29.45
2023-06-25T08:16:19.860Z,29.39
2023-06-25T08:17:19.908Z,29.40
2023-06-25T08:18:19.958Z,29.33
2023-06-25T08:19:20.012Z,29.35
2023-06-25T08:20:20.051Z,29.29
2023-06-25T08:21:20.075Z,29.30
2023-06-25T08:22:20.106Z,29.28
2023-06-25T08:23:20.168Z,29.29
2023-06-25T08:24:20.188Z,29.24
2023-06-25T08:25:20.214Z,29.20
2023-06-25T08:26:20.264Z,29.21
2023-06-25T08:27:20.283Z,29.15
2023-06-25T08:28:20.327Z,29.16
2023-06-25T08:29:20.367Z,29.13
2023-06-25T08:30:20.393Z,29.07
2023-06-25T08:31:20.463Z,29.10
2023-06-25T08:32:20.508Z,29.09
2023-06-25T08:33:20.500Z,29.05
2023-06-25T08:34:20.501Z,29.02
2023-06-25T08:35:20.512Z,29.11
2023-06-25T08:36:20.518Z,29.05
2023-06-25T08:37:20.484Z,29.06
2023-06-25T08:38:20.507Z,29.08
2023-06-25T08:39:20.514Z,29.04
2023-06-25T08:40:20.514Z,29.02
2023-06-25T08:41:20.520Z,29.04
2023-06-25T08:42:20.543Z,29.02
2023-06-25T08:43:20.542Z,29.02
2023-06-25T08:44:20.534Z,29.01
2023-06-25T08:45:20.538Z,28.99
2023-06-25T08:46:20.629Z,28.92
2023-06-25T08:47:20.552Z,28.92
2023-06-25T08:48:20.538Z,28.93
2023-06-25T08:49:20.527Z,28.92
2023-06-25T08:50:20.522Z,28.95
2023-06-25T08:51:20.519Z,28.92
2023-06-25T08:52:20.508Z,28.87
2023-06-25T08:53:20.535Z,28.87
2023-06-25T08:54:20.507Z,28.90
2023-06-25T08:55:20.503Z,28.86
2023-06-25T08:56:20.504Z,28.87
2023-06-25T08:57:20.499Z,28.81
2023-06-25T08:58:20.509Z,28.81
2023-06-25T08:59:20.510Z,28.76
2023-06-25T09:00:20.477Z,28.74
2023-06-25T09:01:20.541Z,28.71
2023-06-25T09:02:20.510Z,28.70
2023-06-25T09:03:20.505Z,28.72
2023-06-25T09:04:22.940Z,28.66
2023-06-25T09:05:20.439Z,28.63
2023-06-25T09:06:20.445Z,28.69
2023-06-25T09:07:20.505Z,28.63
2023-06-25T09:08:20.432Z,28.64
2023-06-25T09:09:20.402Z,28.62
2023-06-25T09:10:20.497Z,28.62
2023-06-25T09:11:20.400Z,28.59
2023-06-25T09:12:20.389Z,28.67
2023-06-25T09:13:20.398Z,28.57
2023-06-25T09:14:20.370Z,28.55
2023-06-25T09:15:20.360Z,28.58
2023-06-25T09:16:20.357Z,28.60
2023-06-25T09:17:20.366Z,28.59
2023-06-25T09:18:20.359Z,28.55
2023-06-25T09:19:20.392Z,28.52
2023-06-25T09:20:20.360Z,28.55
2023-06-25T09:21:20.323Z,28.53
2023-06-25T09:22:20.295Z,28.52
2023-06-25T09:23:20.312Z,28.52
2023-06-25T09:24:20.301Z,28.52
2023-06-25T09:25:20.333Z,28.49
2023-06-25T09:26:20.297Z,28.50
2023-06-25T09:27:20.271Z,28.45
2023-06-25T09:28:20.271Z,28.45
2023-06-25T09:29:20.273Z,28.48
2023-06-25T09:30:20.922Z,28.47
2023-06-25T09:31:20.497Z,28.40
2023-06-25T09:32:20.341Z,28.41
2023-06-25T09:33:20.409Z,28.39
2023-06-25T09:34:20.396Z,28.33
2023-06-25T09:35:20.386Z,28.38
2023-06-25T09:36:37.073Z,28.32
2023-06-25T09:37:21.380Z,28.29
2023-06-25T09:38:21.028Z,28.23
2023-06-25T09:39:20.368Z,28.26
2023-06-25T09:40:20.365Z,28.26
2023-06-25T09:41:20.359Z,28.29
2023-06-25T09:42:20.327Z,28.22
2023-06-25T09:43:20.348Z,28.21
2023-06-25T09:44:20.342Z,28.24
2023-06-25T09:45:20.337Z,28.22
2023-06-25T09:46:20.474Z,28.23
2023-06-25T09:47:20.396Z,28.23
2023-06-25T09:48:20.414Z,28.26
2023-06-25T09:49:20.494Z,28.26
2023-06-25T09:50:20.535Z,28.23
2023-06-25T09:51:20.605Z,28.26
2023-06-25T09:52:20.675Z,28.23
2023-06-25T09:53:20.747Z,28.26
2023-06-25T09:54:20.801Z,28.24
2023-06-25T09:55:20.877Z,28.28
2023-06-25T09:56:20.936Z,28.28
2023-06-25T09:57:21.016Z,28.24
2023-06-25T09:58:21.086Z,28.29
2023-06-25T09:59:22.521Z,28.26
2023-06-25T10:00:21.113Z,28.25
2023-06-25T10:01:21.171Z,28.31
2023-06-25T10:02:21.322Z,28.25
2023-06-25T10:03:21.397Z,28.25
2023-06-25T10:04:21.215Z,28.31
2023-06-25T10:05:21.125Z,28.25
2023-06-25T10:06:21.121Z,28.35
2023-06-25T10:07:21.129Z,28.28
2023-06-25T10:08:21.116Z,28.32
2023-06-25T10:09:21.134Z,28.32
2023-06-25T10:10:21.169Z,28.31
2023-06-25T10:11:22.728Z,28.29
2023-06-25T10:12:21.237Z,28.32
2023-06-25T10:13:21.287Z,28.35
2023-06-25T10:14:21.338Z,28.29
2023-06-25T10:15:21.445Z,28.29
2023-06-25T10:16:34.231Z,28.35
2023-06-25T10:17:24.551Z,28.39
2023-06-25T10:18:26.523Z,28.34
2023-06-25T10:19:21.433Z,28.32
2023-06-25T10:20:21.429Z,28.26
2023-06-25T10:21:21.411Z,28.24
2023-06-25T10:22:21.423Z,28.34
2023-06-25T10:23:22.240Z,28.24
2023-06-25T10:24:21.423Z,28.36
2023-06-25T10:25:21.459Z,28.30
2023-06-25T10:26:21.537Z,28.23
2023-06-25T10:27:21.505Z,28.29
2023-06-25T10:28:21.503Z,28.24
2023-06-25T10:29:21.500Z,28.30
2023-06-25T10:30:21.506Z,28.21
2023-06-25T10:31:21.641Z,28.19
2023-06-25T10:32:21.637Z,28.12
2023-06-25T10:33:21.543Z,28.06
2023-06-25T10:34:21.480Z,28.14
2023-06-25T10:35:21.460Z,28.10
2023-06-25T10:36:21.443Z,28.06
2023-06-25T10:37:21.453Z,28.01
2023-06-25T10:38:21.451Z,28.10
2023-06-25T10:39:21.443Z,28.04
2023-06-25T10:40:21.449Z,28.04
2023-06-25T10:41:21.435Z,28.06
2023-06-25T10:42:21.430Z,28.07
2023-06-25T10:43:21.504Z,27.98
2023-06-25T10:44:21.538Z,27.97
2023-06-25T10:45:21.704Z,27.97
2023-06-25T10:46:21.691Z,28.04
2023-06-25T10:47:21.777Z,27.94
2023-06-25T10:48:21.874Z,27.94
2023-06-25T10:49:21.877Z,27.93
2023-06-25T10:50:21.920Z,28.00
2023-06-25T10:51:21.992Z,27.87
2023-06-25T10:52:22.054Z,27.84
2023-06-25T10:53:22.216Z,27.94
2023-06-25T10:54:22.116Z,27.93
2023-06-25T10:55:22.105Z,27.90
2023-06-25T10:56:22.103Z,27.84
2023-06-25T10:57:22.068Z,27.84
2023-06-25T10:58:22.075Z,27.74
2023-06-25T10:59:22.069Z,27.81
2023-06-25T11:00:22.077Z,27.85
2023-06-25T11:01:22.192Z,27.74
2023-06-25T11:02:23.742Z,27.63
2023-06-25T11:03:22.336Z,27.70
2023-06-25T11:04:22.283Z,27.67
2023-06-25T11:05:22.355Z,27.56
2023-06-25T11:06:22.417Z,27.60
2023-06-25T11:07:22.530Z,27.53
2023-06-25T11:08:22.482Z,27.48
2023-06-25T11:09:22.455Z,27.44
2023-06-25T11:10:22.463Z,27.50
2023-06-25T11:11:22.531Z,27.31
2023-06-25T11:12:22.587Z,27.27
2023-06-25T11:13:22.637Z,27.33
2023-06-25T11:14:22.711Z,27.27
2023-06-25T11:15:22.784Z,27.40
2023-06-25T11:16:22.855Z,27.16
2023-06-25T11:17:22.908Z,27.24
2023-06-25T11:18:22.949Z,27.20
2023-06-25T11:19:23.021Z,27.18
2023-06-25T11:20:23.086Z,27.14
2023-06-25T11:21:23.181Z,26.74
2023-06-25T11:22:23.340Z,26.97
2023-06-25T11:23:23.252Z,27.06
2023-06-25T11:24:23.235Z,27.00
2023-06-25T11:25:23.236Z,26.90
2023-06-25T11:26:23.244Z,26.77
2023-06-25T11:27:23.200Z,26.79
2023-06-25T11:28:23.243Z,26.76
2023-06-25T11:29:23.208Z,26.74
2023-06-25T11:30:23.207Z,26.60
2023-06-25T11:31:23.304Z,26.59
2023-06-25T11:32:23.268Z,26.42
2023-06-25T11:33:23.313Z,26.54
2023-06-25T11:34:23.373Z,26.40
2023-06-25T11:35:23.426Z,26.09
2023-06-25T11:36:23.470Z,26.34
2023-06-25T11:37:23.523Z,26.37
2023-06-25T11:38:23.599Z,26.15
2023-06-25T11:39:23.628Z,26.17
2023-06-25T11:40:23.674Z,26.09
2023-06-25T11:41:23.700Z,26.23
2023-06-25T11:42:23.782Z,25.90
2023-06-25T11:43:23.817Z,25.36
2023-06-25T11:44:23.865Z,24.82
2023-06-25T11:45:23.907Z,25.65
2023-06-25T11:46:23.981Z,25.28
2023-06-25T11:47:24.043Z,25.36
2023-06-25T11:48:24.042Z,25.36
2023-06-25T11:49:24.631Z,25.36
2023-06-25T11:50:24.146Z,25.31
2023-06-25T11:51:24.150Z,25.35
2023-06-25T11:52:24.195Z,25.36
2023-06-25T11:53:24.265Z,25.13
2023-06-25T11:54:24.304Z,24.34
2023-06-25T11:55:24.396Z,24.34
2023-06-25T11:56:24.437Z,24.52
2023-06-25T11:57:24.486Z,24.75
2023-06-25T11:58:24.545Z,25.00
2023-06-25T11:59:24.578Z,24.85
2023-06-25T12:00:24.653Z,24.82
2023-06-25T12:01:24.708Z,24.15
2023-06-25T12:02:28.605Z,24.62
2023-06-25T12:03:26.070Z,24.71
2023-06-25T12:04:24.797Z,24.64
2023-06-25T12:05:24.763Z,24.60
2023-06-25T12:06:24.761Z,24.40
2023-06-25T12:07:24.866Z,24.48
2023-06-25T12:08:24.766Z,24.34
2023-06-25T12:09:24.769Z,24.55
2023-06-25T12:10:24.756Z,24.53
2023-06-25T12:11:24.736Z,24.54
2023-06-25T12:12:24.740Z,24.45
2023-06-25T12:13:24.738Z,24.41
2023-06-25T12:14:24.738Z,24.35
2023-06-25T12:15:24.745Z,24.41
2023-06-25T12:16:24.768Z,24.43
2023-06-25T12:17:25.543Z,24.34
2023-06-25T12:18:24.720Z,24.08
2023-06-25T12:19:24.769Z,23.70
2023-06-25T12:20:24.734Z,23.80
2023-06-25T12:21:24.747Z,23.84
2023-06-25T12:22:24.743Z,23.87
2023-06-25T12:23:24.788Z,23.83
2023-06-25T12:24:24.762Z,23.87
2023-06-25T12:25:24.813Z,23.86
2023-06-25T12:26:24.860Z,23.79
2023-06-25T12:27:25.023Z,23.73
2023-06-25T12:28:24.959Z,23.79
2023-06-25T12:29:25.036Z,23.77
2023-06-25T12:30:25.023Z,23.43
2023-06-25T12:31:25.075Z,23.60
2023-06-25T12:32:25.091Z,23.44
2023-06-25T12:33:25.011Z,23.53
2023-06-25T12:34:25.021Z,23.56
2023-06-25T12:35:25.085Z,23.43
2023-06-25T12:36:25.012Z,23.40
2023-06-25T12:37:25.026Z,23.38
2023-06-25T12:38:25.065Z,23.30
2023-06-25T12:39:25.112Z,23.32
2023-06-25T12:40:25.184Z,23.35
2023-06-25T12:41:25.205Z,23.46
2023-06-25T12:42:25.236Z,23.52
2023-06-25T12:43:25.288Z,22.94
2023-06-25T12:44:25.309Z,23.26
2023-06-25T12:45:25.297Z,23.44
2023-06-25T12:46:25.311Z,23.22
2023-06-25T12:47:25.338Z,23.31
2023-06-25T12:48:25.286Z,23.25
2023-06-25T12:49:25.291Z,23.33
2023-06-25T12:50:25.283Z,23.18
2023-06-25T12:51:25.282Z,23.28
2023-06-25T12:52:25.292Z,23.37